Time;durP1;ratioP1;P1;durP2;ratioP2;P2;SDS_P1;SDS_P2;PMS_P1;PMS_P2;Temp;Humidity;BMP_temperature;BMP_pressure;BME280_temperature;BME280_humidity;BME280_pressure;Samples;Min_cycle;Max_cycle;Signal;HPM_P1;HPM_P2
2022/07/31 00:04:46;;;;;;;2.20;2.00;;;21.10;99.90;;;;;;10607233;27;20192;-91
2022/07/31 00:09:49;;;;;;;2.10;2.00;;;21.00;99.90;;;;;;10625163;27;20245;-90
2022/07/31 00:14:55;;;;;;;3.00;2.15;;;21.10;99.90;;;;;;10605856;27;20212;-90
2022/07/31 00:19:58;;;;;;;2.50;2.30;;;21.10;99.90;;;;;;10589644;27;20281;-90
2022/07/31 00:25:00;;;;;;;2.70;2.50;;;21.00;99.90;;;;;;10605827;27;20201;-91
2022/07/31 00:30:04;;;;;;;2.55;2.33;;;21.10;99.90;;;;;;10606554;27;20242;-91
2022/07/31 00:35:07;;;;;;;2.65;2.45;;;21.10;99.90;;;;;;10624536;27;20265;-90
2022/07/31 00:40:12;;;;;;;2.70;2.50;;;21.00;99.90;;;;;;10605028;27;20252;-90
2022/07/31 00:45:15;;;;;;;2.10;2.00;;;21.00;99.90;;;;;;10604702;27;20200;-90
2022/07/31 00:50:23;;;;;;;2.55;2.35;;;21.10;99.90;;;;;;10605054;27;20249;-90
2022/07/31 00:55:26;;;;;;;2.67;2.47;;;21.00;99.90;;;;;;10623861;27;20569;-90
2022/07/31 01:00:28;;;;;;;5.18;3.50;;;20.90;99.90;;;;;;10588061;28;20635;-90
2022/07/31 01:05:31;;;;;;;2.50;2.30;;;20.90;99.90;;;;;;10604474;28;20632;-90
2022/07/31 01:10:50;;;;;;;4.13;3.72;;;20.90;99.90;;;;;;10604717;28;20196;-89
2022/07/31 01:15:55;;;;;;;3.03;2.72;;;20.80;99.90;;;;;;10604838;28;20253;-90
2022/07/31 01:21:03;;;;;;;3.63;2.17;;;20.90;99.90;;;;;;10623148;28;20622;-90
2022/07/31 01:26:24;;;;;;;2.70;2.50;;;21.00;99.90;;;;;;10587088;28;20553;-90
2022/07/31 01:31:46;;;;;;;2.47;2.28;;;21.00;99.90;;;;;;10604120;28;20277;-90
2022/07/31 01:37:00;;;;;;;3.05;2.80;;;21.00;99.90;;;;;;10604469;28;20199;-90
2022/07/31 01:42:06;;;;;;;3.22;2.63;;;21.00;99.90;;;;;;10603933;28;20219;-90
2022/07/31 01:47:12;;;;;;;2.80;2.60;;;21.00;99.90;;;;;;10603738;28;20561;-90
2022/07/31 01:52:16;;;;;;;2.80;2.53;;;21.10;99.90;;;;;;10586986;28;20204;-89
2022/07/31 01:57:22;;;;;;;2.78;2.50;;;20.90;99.90;;;;;;10608680;27;20572;-90
2022/07/31 02:02:27;;;;;;;2.38;2.17;;;20.90;99.90;;;;;;10611395;27;20228;-90
2022/07/31 02:07:30;;;;;;;3.33;2.30;;;21.00;99.90;;;;;;10630008;27;20196;-90
2022/07/31 02:12:35;;;;;;;2.35;2.15;;;20.90;99.90;;;;;;10610876;27;20261;-90
2022/07/31 02:17:38;;;;;;;2.58;2.38;;;20.90;99.90;;;;;;10611198;27;20208;-90
2022/07/31 02:23:01;;;;;;;2.70;2.50;;;20.80;99.90;;;;;;10629117;27;20224;-90
2022/07/31 02:28:07;;;;;;;4.85;4.00;;;20.90;99.90;;;;;;10629289;27;20225;-91
2022/07/31 02:33:17;;;;;;;2.55;2.35;;;20.90;99.90;;;;;;10610561;27;20224;-90
2022/07/31 02:38:25;;;;;;;2.83;2.63;;;20.90;99.90;;;;;;10610043;27;20204;-90
2022/07/31 02:43:32;;;;;;;2.45;2.10;;;20.90;99.90;;;;;;10609829;27;20631;-90
2022/07/31 02:48:40;;;;;;;4.95;3.95;;;20.90;99.90;;;;;;10609766;27;20204;-90
2022/07/31 02:53:46;;;;;;;3.00;2.72;;;20.90;99.90;;;;;;10609345;27;20200;-90
2022/07/31 02:58:50;;;;;;;2.70;2.50;;;20.90;99.90;;;;;;10592932;27;20257;-91
2022/07/31 03:03:57;;;;;;;2.65;2.28;;;20.90;99.90;;;;;;10609242;27;20200;-90
2022/07/31 03:09:02;;;;;;;2.60;2.40;;;20.90;99.90;;;;;;10607947;27;20572;-91
2022/07/31 03:14:09;;;;;;;3.47;3.17;;;20.90;99.90;;;;;;10608963;27;20212;-90
2022/07/31 03:19:12;;;;;;;5.25;4.40;;;20.50;99.90;;;;;;10608880;27;20212;-90
2022/07/31 03:24:16;;;;;;;2.80;2.60;;;20.70;99.90;;;;;;10627033;27;20600;-89
2022/07/31 03:29:18;;;;;;;4.22;2.80;;;20.80;99.90;;;;;;10607796;27;20308;-90
2022/07/31 03:34:41;;;;;;;3.10;2.90;;;20.90;99.90;;;;;;10626477;27;20224;-90
2022/07/31 03:39:43;;;;;;;3.28;2.60;;;20.90;99.90;;;;;;10607390;27;20273;-92
2022/07/31 03:44:48;;;;;;;2.80;2.60;;;20.90;99.90;;;;;;10607032;27;20208;-90
2022/07/31 03:49:52;;;;;;;2.28;2.05;;;20.90;99.90;;;;;;10606970;27;20205;-90
2022/07/31 03:54:55;;;;;;;2.67;2.47;;;21.00;99.90;;;;;;10590375;27;20733;-90
2022/07/31 04:00:01;;;;;;;4.70;4.05;;;21.00;99.90;;;;;;10589637;27;20647;-90
2022/07/31 04:05:07;;;;;;;3.10;2.90;;;21.00;99.90;;;;;;10625298;27;20196;-90
2022/07/31 04:10:13;;;;;;;2.53;2.28;;;21.00;99.90;;;;;;10606214;27;20549;-90
2022/07/31 04:15:16;;;;;;;2.72;2.53;;;21.00;99.90;;;;;;10588980;27;20209;-90
2022/07/31 04:20:20;;;;;;;3.45;3.15;;;21.00;99.90;;;;;;10605837;27;20273;-90
2022/07/31 04:25:23;;;;;;;2.92;2.40;;;21.00;99.90;;;;;;10605748;27;20238;-90
2022/07/31 04:30:44;;;;;;;4.70;3.00;;;21.10;99.90;;;;;;10624683;27;20200;-90
2022/07/31 04:35:47;;;;;;;3.10;2.72;;;21.00;99.90;;;;;;10563798;28;20228;-90
2022/07/31 04:40:50;;;;;;;3.00;2.60;;;21.10;99.90;;;;;;10563613;28;20224;-90
2022/07/31 04:45:52;;;;;;;3.92;2.67;;;21.10;99.90;;;;;;10563368;28;20201;-90
2022/07/31 04:50:56;;;;;;;2.85;2.63;;;21.10;99.90;;;;;;10563135;28;20670;-90
2022/07/31 05:01:19;;;;;;;2.80;2.60;;;21.20;99.90;;;;;;10579613;28;20225;-91
2022/07/31 05:06:32;;;;;;;6.10;3.08;;;21.10;99.90;;;;;;10580115;28;20197;-91
2022/07/31 05:11:35;;;;;;;2.80;2.60;;;21.20;99.90;;;;;;10578977;28;20208;-90
2022/07/31 05:16:39;;;;;;;2.92;2.72;;;21.20;99.90;;;;;;10579028;28;20742;-90
2022/07/31 05:21:43;;;;;;;3.72;2.67;;;21.00;99.90;;;;;;10579391;28;20221;-90
2022/07/31 05:27:17;;;;;;;5.15;3.22;;;21.10;99.90;;;;;;10574926;28;20204;-91
2022/07/31 05:32:20;;;;;;;3.97;3.00;;;21.20;99.90;;;;;;10580321;27;20235;-90
2022/07/31 05:37:24;;;;;;;3.13;2.88;;;21.20;99.90;;;;;;10612575;27;20261;-91
2022/07/31 05:42:27;;;;;;;3.22;2.92;;;21.20;99.90;;;;;;10613191;27;20220;-90
2022/07/31 05:47:57;;;;;;;2.60;2.40;;;21.20;99.90;;;;;;10612105;27;20201;-91
2022/07/31 05:52:59;;;;;;;3.65;3.28;;;21.30;99.90;;;;;;10611886;27;20668;-90
2022/07/31 05:58:25;;;;;;;3.67;2.40;;;21.30;99.90;;;;;;10622712;27;20257;-91
2022/07/31 06:03:28;;;;;;;2.50;2.30;;;21.30;99.90;;;;;;10611461;27;20232;-91
2022/07/31 06:08:45;;;;;;;2.45;2.25;;;21.40;99.90;;;;;;10611225;27;20672;-90
2022/07/31 06:13:48;;;;;;;2.75;2.55;;;21.30;99.90;;;;;;10611074;27;20264;-90
2022/07/31 06:19:03;;;;;;;3.10;2.80;;;21.40;99.90;;;;;;10595595;27;20577;-91
2022/07/31 06:24:06;;;;;;;2.55;2.28;;;21.10;99.90;;;;;;10611412;27;20245;-90
2022/07/31 06:29:19;;;;;;;3.47;2.35;;;21.20;99.90;;;;;;10595547;27;20212;-91
2022/07/31 06:34:41;;;;;;;2.80;2.60;;;21.40;99.90;;;;;;10610290;27;20650;-91
2022/07/31 06:39:45;;;;;;;3.17;2.80;;;21.20;99.90;;;;;;10609543;27;20217;-91
2022/07/31 06:45:16;;;;;;;2.53;2.33;;;21.30;99.90;;;;;;10628353;27;20200;-91
2022/07/31 06:50:56;;;;;;;3.13;2.83;;;21.10;99.90;;;;;;10642006;27;20200;-90
2022/07/31 06:56:21;;;;;;;3.05;2.42;;;21.20;99.90;;;;;;10609167;27;20811;-91
2022/07/31 07:01:24;;;;;;;2.60;2.40;;;21.40;99.90;;;;;;10608832;27;20630;-91
2022/07/31 07:06:27;;;;;;;3.10;2.50;;;21.20;99.90;;;;;;10592889;27;20253;-91
2022/07/31 07:11:30;;;;;;;2.55;2.35;;;21.30;99.90;;;;;;10608497;27;20754;-91
2022/07/31 07:16:32;;;;;;;2.85;2.28;;;21.40;99.90;;;;;;10608402;27;20257;-91
2022/07/31 07:21:35;;;;;;;3.70;3.40;;;21.30;99.90;;;;;;10608946;27;20624;-91
2022/07/31 07:26:38;;;;;;;2.83;2.63;;;21.30;99.90;;;;;;10591229;27;20200;-92
2022/07/31 07:31:41;;;;;;;2.72;2.53;;;21.30;99.90;;;;;;10607930;27;20229;-91
2022/07/31 07:36:44;;;;;;;3.15;2.85;;;21.40;99.90;;;;;;10607406;27;20196;-91
2022/07/31 07:41:55;;;;;;;2.38;2.17;;;21.40;99.90;;;;;;10607736;27;20220;-90
2022/07/31 07:46:57;;;;;;;2.90;2.70;;;21.60;99.90;;;;;;10607140;27;20572;-91
2022/07/31 07:52:02;;;;;;;2.67;2.47;;;21.50;99.90;;;;;;10590490;27;20201;-91
2022/07/31 07:57:18;;;;;;;2.58;2.38;;;21.70;99.90;;;;;;10636740;27;20673;-90
2022/07/31 08:02:27;;;;;;;2.00;1.90;;;21.70;99.90;;;;;;10620346;27;20216;-90
2022/07/31 08:07:34;;;;;;;2.70;2.50;;;21.40;99.90;;;;;;10589239;27;20205;-91
2022/07/31 08:13:13;;;;;;;2.83;2.25;;;21.10;99.90;;;;;;10595247;27;20212;-90
2022/07/31 08:18:36;;;;;;;2.67;2.47;;;21.40;99.90;;;;;;10592678;27;20253;-91
2022/07/31 08:23:39;;;;;;;2.25;2.05;;;21.30;99.90;;;;;;10605809;27;20288;-91
2022/07/31 08:28:42;;;;;;;2.50;2.22;;;21.40;99.90;;;;;;10605605;27;20200;-91
2022/07/31 08:33:54;;;;;;;2.33;2.13;;;21.50;99.90;;;;;;10589749;27;20277;-91
2022/07/31 08:38:57;;;;;;;2.90;2.63;;;21.40;99.90;;;;;;10605668;27;20208;-91
2022/07/31 08:44:22;;;;;;;3.33;2.20;;;21.20;99.90;;;;;;10601678;27;20246;-90
2022/07/31 08:49:35;;;;;;;3.55;2.45;;;21.10;99.90;;;;;;10623928;27;20568;-91
2022/07/31 08:54:42;;;;;;;2.80;2.50;;;21.00;99.90;;;;;;10604873;27;20729;-91
2022/07/31 08:59:45;;;;;;;2.50;2.30;;;21.20;99.90;;;;;;10604959;27;20233;-90
2022/07/31 09:04:49;;;;;;;2.72;2.50;;;21.10;99.90;;;;;;10603862;27;20196;-91
2022/07/31 09:09:55;;;;;;;2.30;2.13;;;21.40;99.90;;;;;;10604810;28;20200;-91
2022/07/31 09:14:58;;;;;;;2.30;2.10;;;21.20;99.90;;;;;;10604286;28;20204;-91
2022/07/31 09:20:02;;;;;;;2.92;1.73;;;21.50;99.90;;;;;;10604236;28;20242;-90
2022/07/31 09:25:11;;;;;;;2.60;2.40;;;21.40;99.90;;;;;;10588475;28;20257;-91
2022/07/31 09:30:14;;;;;;;6.90;2.00;;;21.50;99.90;;;;;;10604040;28;20204;-91
2022/07/31 09:35:51;;;;;;;1.60;1.50;;;21.50;99.90;;;;;;10623062;28;20645;-91
2022/07/31 09:40:54;;;;;;;2.20;2.05;;;21.60;99.90;;;;;;10603862;28;20328;-92
2022/07/31 09:46:45;;;;;;;2.35;2.13;;;21.70;99.90;;;;;;10604984;28;20249;-91
2022/07/31 09:51:48;;;;;;;3.15;1.98;;;21.70;99.90;;;;;;10603832;28;20208;-90
2022/07/31 09:56:55;;;;;;;3.38;2.03;;;21.60;99.90;;;;;;10604820;28;20241;-91
2022/07/31 10:02:00;;;;;;;2.78;1.42;;;21.70;99.90;;;;;;10603484;28;20277;-91
2022/07/31 10:07:03;;;;;;;2.45;2.25;;;21.50;99.90;;;;;;10603274;28;20201;-91
2022/07/31 10:12:11;;;;;;;3.05;1.30;;;21.70;99.90;;;;;;10587099;28;20204;-91
2022/07/31 10:17:29;;;;;;;2.22;2.05;;;21.70;99.90;;;;;;10607364;27;20574;-91
2022/07/31 10:23:26;;;;;;;1.58;1.48;;;21.70;99.90;;;;;;10617034;27;20224;-91
2022/07/31 10:28:29;;;;;;;2.53;2.25;;;21.90;99.90;;;;;;10610433;27;20204;-91
2022/07/31 10:33:32;;;;;;;2.33;2.13;;;21.90;99.90;;;;;;10610848;27;20228;-91
2022/07/31 10:39:57;;;;;;;2.72;1.90;;;22.00;99.90;;;;;;10612952;27;20257;-90
2022/07/31 10:45:08;;;;;;;1.23;1.13;;;22.10;99.90;;;;;;10584145;27;20205;-90
2022/07/31 10:50:23;;;;;;;2.72;2.05;;;22.10;99.90;;;;;;10610402;27;20257;-91
2022/07/31 10:55:37;;;;;;;2.30;1.10;;;22.30;99.90;;;;;;10609735;27;20229;-90
2022/07/31 11:00:40;;;;;;;4.82;2.13;;;22.20;99.90;;;;;;10628186;27;20280;-90
2022/07/31 11:06:16;;;;;;;3.38;1.90;;;22.40;99.90;;;;;;10498081;28;20348;-91
2022/07/31 11:11:33;;;;;;;1.95;1.65;;;22.40;99.90;;;;;;10496647;28;20687;-91
2022/07/31 11:16:59;;;;;;;1.60;1.50;;;22.50;99.90;;;;;;10486444;28;20202;-91
2022/07/31 11:22:17;;;;;;;1.85;1.27;;;22.40;99.90;;;;;;10495953;28;20221;-91
2022/07/31 11:27:34;;;;;;;1.40;1.30;;;22.40;99.90;;;;;;10480869;28;20319;-90
2022/07/31 11:32:36;;;;;;;1.33;1.15;;;22.40;99.90;;;;;;10495842;28;20230;-91
2022/07/31 11:37:42;;;;;;;1.88;1.73;;;22.60;99.90;;;;;;10495913;28;20202;-91
2022/07/31 11:42:50;;;;;;;3.10;1.63;;;22.60;99.90;;;;;;10600627;27;20643;-91
2022/07/31 11:48:17;;;;;;;3.72;1.83;;;22.60;99.90;;;;;;10593993;27;20200;-91
2022/07/31 11:53:21;;;;;;;3.33;2.08;;;22.80;99.90;;;;;;10626075;27;20188;-91
2022/07/31 11:58:25;;;;;;;1.98;1.77;;;22.90;99.90;;;;;;10607124;27;20685;-91
2022/07/31 12:03:33;;;;;;;1.75;1.52;;;22.90;99.90;;;;;;10606950;27;20323;-90
2022/07/31 12:08:36;;;;;;;2.30;2.10;;;22.90;99.90;;;;;;10625759;27;20572;-90
2022/07/31 12:13:39;;;;;;;1.85;1.42;;;22.80;99.90;;;;;;10607282;27;20543;-91
2022/07/31 12:18:52;;;;;;;1.92;1.83;;;22.80;99.90;;;;;;10589749;27;20204;-90
2022/07/31 12:23:57;;;;;;;1.77;1.63;;;22.90;99.90;;;;;;10605809;27;20288;-90
2022/07/31 12:29:03;;;;;;;1.90;1.80;;;23.10;99.90;;;;;;10624389;27;20260;-91
2022/07/31 12:34:06;;;;;;;1.77;1.67;;;23.00;99.90;;;;;;10624441;27;20228;-91
2022/07/31 12:39:10;;;;;;;1.38;1.05;;;22.90;99.90;;;;;;10623218;27;20214;-90
2022/07/31 12:44:13;;;;;;;2.95;1.33;;;23.00;99.90;;;;;;10623910;27;20208;-90
2022/07/31 12:49:19;;;;;;;1.60;1.40;;;22.90;99.90;;;;;;10624076;27;20185;-89
2022/07/31 12:54:22;;;;;;;4.32;1.50;;;23.30;99.90;;;;;;10623671;27;20269;-90
2022/07/31 12:59:25;;;;;;;1.98;1.88;;;23.40;99.90;;;;;;10604627;27;20278;-90
2022/07/31 13:04:28;;;;;;;2.33;2.03;;;23.30;99.90;;;;;;10587740;27;20257;-90
2022/07/31 13:09:30;;;;;;;2.60;1.02;;;23.10;99.90;;;;;;10623405;28;20600;-90
2022/07/31 13:14:33;;;;;;;2.08;1.20;;;23.10;99.90;;;;;;10605402;28;20196;-89
2022/07/31 13:19:35;;;;;;;1.27;1.13;;;23.20;99.90;;;;;;10604744;28;20249;-91
2022/07/31 13:24:38;;;;;;;2.05;1.92;;;23.00;99.90;;;;;;10604458;28;20712;-90
2022/07/31 13:29:40;;;;;;;1.70;1.52;;;23.10;99.90;;;;;;10604951;28;20229;-90
2022/07/31 13:34:43;;;;;;;2.60;1.35;;;23.40;99.90;;;;;;10604333;28;20600;-90
2022/07/31 13:39:45;;;;;;;2.30;1.80;;;23.20;99.90;;;;;;10604937;28;20192;-90
2022/07/31 13:44:48;;;;;;;1.88;1.75;;;23.40;99.90;;;;;;10587257;28;20704;-90
2022/07/31 13:49:50;;;;;;;4.55;1.00;;;23.20;99.90;;;;;;10603992;27;20196;-90
2022/07/31 13:54:53;;;;;;;1.70;1.60;;;23.50;99.90;;;;;;10630689;27;20268;-90
2022/07/31 13:59:55;;;;;;;1.50;1.08;;;23.50;99.90;;;;;;10611760;27;20257;-89
2022/07/31 14:04:58;;;;;;;1.73;1.52;;;23.90;99.90;;;;;;10630345;27;20216;-89
2022/07/31 14:10:01;;;;;;;1.98;0.88;;;24.00;99.90;;;;;;10630331;27;20188;-90
2022/07/31 14:15:04;;;;;;;3.17;1.80;;;;;;;;;;10629831;27;20204;-89
2022/07/31 14:20:07;;;;;;;1.52;0.70;;;24.30;99.90;;;;;;10611827;27;20189;-90
2022/07/31 14:25:11;;;;;;;3.60;1.33;;;24.20;98.70;;;;;;10629613;27;20615;-90
2022/07/31 14:30:14;;;;;;;1.48;1.38;;;24.10;99.90;;;;;;10629271;27;20230;-89
2022/07/31 14:35:21;;;;;;;1.98;1.80;;;24.40;99.90;;;;;;10610577;27;20236;-90
2022/07/31 14:40:24;;;;;;;2.38;1.23;;;24.10;99.90;;;;;;10628990;27;20196;-90
2022/07/31 14:45:27;;;;;;;2.40;1.33;;;23.70;98.80;;;;;;10628669;27;20208;-89
2022/07/31 14:50:30;;;;;;;1.33;1.20;;;24.10;99.90;;;;;;10609498;27;20540;-91
2022/07/31 14:55:33;;;;;;;5.53;1.30;;;23.60;99.90;;;;;;10609465;27;20200;-90
2022/07/31 15:00:35;;;;;;;2.20;1.08;;;23.70;99.90;;;;;;10628013;27;20201;-91
2022/07/31 15:05:39;;;;;;;2.45;1.48;;;23.80;99.90;;;;;;10608047;27;20633;-90
2022/07/31 15:11:02;;;;;;;2.58;1.13;;;23.60;99.90;;;;;;10609253;27;20253;-91
2022/07/31 15:16:04;;;;;;;1.60;1.50;;;24.00;98.80;;;;;;10627825;27;20559;-90
2022/07/31 15:21:16;;;;;;;1.60;1.50;;;23.80;99.90;;;;;;10609230;27;20241;-90
2022/07/31 15:26:19;;;;;;;1.35;0.93;;;23.60;99.90;;;;;;10608278;27;20254;-90
2022/07/31 15:31:22;;;;;;;1.88;0.95;;;23.70;99.90;;;;;;10607899;27;20277;-90
2022/07/31 15:36:25;;;;;;;1.55;1.45;;;24.00;99.90;;;;;;10626679;27;20184;-90
2022/07/31 15:41:27;;;;;;;2.15;1.85;;;23.60;99.90;;;;;;10607669;27;20216;-90
2022/07/31 15:46:30;;;;;;;1.40;1.30;;;23.70;99.90;;;;;;10607542;27;20533;-90
2022/07/31 15:51:32;;;;;;;6.28;1.83;;;23.80;99.90;;;;;;10626082;27;20196;-90
2022/07/31 15:56:35;;;;;;;2.08;1.95;;;23.70;99.90;;;;;;10607859;27;20577;-89
2022/07/31 16:01:37;;;;;;;2.70;1.48;;;23.60;99.90;;;;;;10625570;27;20212;-91
2022/07/31 16:06:40;;;;;;;2.65;1.15;;;23.80;99.90;;;;;;10607279;27;20617;-90
2022/07/31 16:11:49;;;;;;;3.03;1.10;;;23.80;99.90;;;;;;10590149;27;20574;-90
2022/07/31 16:17:06;;;;;;;2.60;1.27;;;23.90;99.90;;;;;;10624780;27;20606;-90
2022/07/31 16:22:09;;;;;;;2.17;0.95;;;23.90;99.90;;;;;;10624792;27;20216;-90
2022/07/31 16:27:11;;;;;;;1.77;1.35;;;23.90;99.90;;;;;;10624725;27;20352;-90
2022/07/31 16:32:14;;;;;;;1.40;1.20;;;23.80;99.90;;;;;;10605748;27;20772;-90
2022/07/31 16:37:16;;;;;;;1.58;1.48;;;23.90;99.90;;;;;;10606265;27;20196;-89
2022/07/31 16:42:19;;;;;;;1.75;1.65;;;23.80;99.90;;;;;;10624269;27;20263;-90
2022/07/31 16:47:22;;;;;;;1.30;1.20;;;23.90;99.90;;;;;;10624182;27;20552;-90
2022/07/31 16:52:44;;;;;;;1.60;1.50;;;23.90;99.90;;;;;;10608957;27;20192;-90
2022/07/31 16:57:47;;;;;;;1.77;1.67;;;23.80;99.90;;;;;;10623693;27;20192;-90
2022/07/31 17:02:49;;;;;;;1.60;1.08;;;23.80;99.90;;;;;;10623721;27;20216;-90
2022/07/31 17:07:51;;;;;;;1.60;1.50;;;23.70;99.90;;;;;;10605327;28;20737;-91
2022/07/31 17:12:54;;;;;;;1.67;1.58;;;23.70;99.90;;;;;;10604568;28;20268;-90
2022/07/31 17:17:56;;;;;;;2.47;1.17;;;23.60;99.90;;;;;;10587851;28;20257;-91
2022/07/31 17:22:59;;;;;;;1.73;1.20;;;23.50;99.90;;;;;;10623109;28;20237;-89
2022/07/31 17:28:07;;;;;;;1.63;1.52;;;23.50;99.90;;;;;;10611496;27;20260;-90
2022/07/31 17:33:16;;;;;;;1.90;1.10;;;23.40;99.90;;;;;;10612941;27;20300;-90
2022/07/31 17:38:18;;;;;;;2.58;1.05;;;23.20;99.90;;;;;;10631476;27;20196;-90
2022/07/31 17:43:21;;;;;;;3.47;1.63;;;23.20;99.90;;;;;;10631066;27;20212;-91
2022/07/31 17:48:29;;;;;;;2.25;1.10;;;23.10;99.90;;;;;;10596949;27;20196;-91
2022/07/31 17:53:31;;;;;;;1.48;1.15;;;22.90;99.90;;;;;;10630929;27;20613;-91
2022/07/31 17:58:54;;;;;;;1.90;0.90;;;22.60;99.90;;;;;;10630586;27;20624;-90
2022/07/31 18:03:57;;;;;;;1.30;0.80;;;22.30;99.90;;;;;;10611871;27;20220;-90
2022/07/31 18:08:59;;;;;;;1.45;1.35;;;22.00;99.90;;;;;;10630125;27;20241;-90
2022/07/31 18:14:02;;;;;;;1.23;1.13;;;22.10;99.90;;;;;;10611115;27;20596;-90
2022/07/31 18:19:06;;;;;;;1.58;1.48;;;22.00;99.90;;;;;;10610980;27;20204;-90
2022/07/31 18:24:09;;;;;;;1.70;1.60;;;21.90;99.90;;;;;;10611460;27;20581;-90
2022/07/31 18:29:11;;;;;;;3.13;1.50;;;21.90;99.90;;;;;;10611235;27;20547;-90
2022/07/31 18:34:14;;;;;;;2.20;1.63;;;21.80;99.90;;;;;;10611321;27;20258;-90
2022/07/31 18:39:17;;;;;;;1.55;1.45;;;21.80;99.90;;;;;;10610769;27;20563;-91
2022/07/31 18:44:20;;;;;;;1.50;1.40;;;21.70;99.90;;;;;;10610610;27;20257;-90
2022/07/31 18:49:23;;;;;;;1.55;1.45;;;21.70;99.90;;;;;;10610437;27;20530;-91
2022/07/31 18:54:46;;;;;;;1.60;1.50;;;21.60;99.90;;;;;;10595837;27;20577;-90
2022/07/31 18:59:55;;;;;;;1.73;1.63;;;21.60;99.90;;;;;;10609716;27;20208;-90
2022/07/31 19:04:57;;;;;;;1.42;1.33;;;21.50;99.90;;;;;;10609246;27;20269;-90
2022/07/31 19:10:00;;;;;;;1.50;1.40;;;21.50;99.90;;;;;;10627888;27;20193;-90
2022/07/31 19:15:03;;;;;;;1.77;1.67;;;21.50;99.90;;;;;;10608786;27;20212;-90
2022/07/31 19:20:10;;;;;;;1.42;1.33;;;21.50;99.90;;;;;;10627406;27;20245;-90
2022/07/31 19:25:34;;;;;;;1.60;1.35;;;21.40;99.90;;;;;;10608368;27;20630;-90
2022/07/31 19:30:57;;;;;;;1.73;1.50;;;21.30;99.90;;;;;;10609026;27;20730;-88
2022/07/31 19:36:00;;;;;;;1.60;1.50;;;21.40;99.90;;;;;;10627243;27;20307;-90
2022/07/31 19:41:04;;;;;;;1.70;1.60;;;21.30;99.90;;;;;;10608096;27;20197;-90
2022/07/31 19:46:07;;;;;;;1.48;1.38;;;21.30;99.90;;;;;;10626559;27;20241;-91
2022/07/31 19:51:15;;;;;;;1.60;1.50;;;21.30;99.90;;;;;;10608432;27;20192;-90
2022/07/31 19:56:17;;;;;;;2.15;1.40;;;21.30;99.90;;;;;;10607423;27;20595;-90
2022/07/31 20:01:22;;;;;;;3.33;1.48;;;21.30;99.90;;;;;;10608067;27;20204;-91
2022/07/31 20:06:25;;;;;;;1.60;1.50;;;21.30;99.90;;;;;;10625442;27;20576;-90
2022/07/31 20:11:30;;;;;;;1.42;1.33;;;21.30;99.90;;;;;;10606772;27;20245;-90
2022/07/31 20:16:32;;;;;;;1.98;1.88;;;21.30;99.90;;;;;;10606828;27;20200;-90
2022/07/31 20:21:36;;;;;;;1.95;1.80;;;21.20;99.90;;;;;;10606916;27;20536;-90
2022/07/31 20:26:38;;;;;;;1.65;1.55;;;21.20;99.90;;;;;;10606596;27;20220;-90
2022/07/31 20:31:41;;;;;;;1.77;1.67;;;21.20;99.90;;;;;;10606130;27;20220;-90
2022/07/31 20:36:43;;;;;;;1.48;1.38;;;21.20;99.90;;;;;;10624388;27;20241;-90
2022/07/31 20:41:46;;;;;;;1.73;1.52;;;21.20;99.90;;;;;;10588393;27;20610;-90
2022/07/31 20:46:48;;;;;;;1.55;1.45;;;21.10;99.90;;;;;;10623907;27;20216;-90
2022/07/31 20:51:52;;;;;;;1.63;1.52;;;21.10;99.90;;;;;;10623989;27;20237;-91
2022/07/31 20:56:56;;;;;;;1.65;1.55;;;21.00;99.90;;;;;;10605739;27;20725;-90
2022/07/31 21:01:58;;;;;;;1.98;1.77;;;21.00;99.90;;;;;;10604517;27;20632;-91
2022/07/31 21:07:00;;;;;;;1.80;1.70;;;21.00;99.90;;;;;;10604611;28;20245;-90
2022/07/31 21:12:05;;;;;;;2.00;1.80;;;21.00;99.90;;;;;;10623590;28;20241;-90
2022/07/31 21:17:08;;;;;;;1.92;1.83;;;21.00;99.90;;;;;;10623350;28;20598;-90
2022/07/31 21:22:11;;;;;;;1.80;1.50;;;21.00;99.90;;;;;;10623349;28;20188;-90
2022/07/31 21:27:14;;;;;;;1.70;1.50;;;21.00;99.90;;;;;;10604817;28;20273;-91
2022/07/31 21:32:17;;;;;;;1.55;1.45;;;21.00;99.90;;;;;;10605069;28;20216;-91
2022/07/31 21:37:21;;;;;;;1.48;1.38;;;20.90;99.90;;;;;;10623058;28;20193;-91
2022/07/31 21:42:24;;;;;;;1.90;1.80;;;21.00;99.90;;;;;;10604710;28;20192;-90
2022/07/31 21:47:31;;;;;;;1.70;1.60;;;21.00;99.90;;;;;;10604646;28;20216;-91
2022/07/31 21:52:54;;;;;;;1.83;1.73;;;21.00;99.90;;;;;;10603943;28;20208;-90
2022/07/31 21:57:56;;;;;;;1.83;1.45;;;21.00;99.90;;;;;;10603959;28;20208;-91
2022/07/31 22:03:03;;;;;;;1.92;1.80;;;21.00;99.90;;;;;;10622393;28;20208;-90
2022/07/31 22:08:05;;;;;;;2.03;1.85;;;20.90;99.90;;;;;;10603444;28;20196;-90
2022/07/31 22:13:09;;;;;;;1.85;1.75;;;20.90;99.90;;;;;;10626162;27;20192;-91
2022/07/31 22:18:12;;;;;;;1.90;1.70;;;20.90;99.90;;;;;;10630182;27;20257;-90
2022/07/31 22:23:14;;;;;;;2.00;1.67;;;20.90;99.90;;;;;;10629834;27;20681;-90
2022/07/31 22:28:20;;;;;;;1.77;1.60;;;20.90;99.90;;;;;;10629516;27;20196;-91
2022/07/31 22:33:23;;;;;;;1.70;1.60;;;20.90;99.90;;;;;;10611772;27;20220;-91
2022/07/31 22:38:27;;;;;;;1.77;1.67;;;20.90;99.90;;;;;;10629226;27;20196;-91
2022/07/31 22:43:30;;;;;;;2.22;2.03;;;20.90;99.90;;;;;;10593189;27;20216;-91
2022/07/31 22:48:54;;;;;;;3.38;1.80;;;20.80;99.90;;;;;;10629276;27;20213;-91
2022/07/31 22:53:56;;;;;;;1.70;1.60;;;20.90;99.90;;;;;;10628737;27;20192;-91
2022/07/31 22:58:59;;;;;;;1.88;1.77;;;20.90;99.90;;;;;;10610298;27;20565;-91
2022/07/31 23:04:01;;;;;;;2.10;1.90;;;20.90;99.90;;;;;;10628389;27;20220;-91
2022/07/31 23:09:04;;;;;;;1.73;1.63;;;20.90;99.90;;;;;;10628527;27;20596;-91
2022/07/31 23:14:07;;;;;;;2.45;1.90;;;20.90;99.90;;;;;;10627847;27;20249;-91
2022/07/31 23:19:09;;;;;;;1.80;1.70;;;20.90;99.90;;;;;;10628061;27;20299;-90
2022/07/31 23:24:12;;;;;;;1.75;1.65;;;20.90;99.90;;;;;;10608841;27;20261;-90
2022/07/31 23:29:14;;;;;;;1.92;1.83;;;20.90;99.90;;;;;;10608972;27;20197;-90
2022/07/31 23:34:17;;;;;;;1.95;1.85;;;20.90;99.90;;;;;;10591551;27;20231;-91
2022/07/31 23:39:21;;;;;;;2.72;2.33;;;20.90;99.90;;;;;;10627245;27;20605;-91
2022/07/31 23:44:24;;;;;;;1.80;1.70;;;20.90;99.90;;;;;;10626201;27;20213;-91
2022/07/31 23:49:27;;;;;;;1.73;1.63;;;20.80;99.90;;;;;;10626309;27;20192;-90
2022/07/31 23:54:29;;;;;;;1.90;1.77;;;20.80;99.90;;;;;;10626060;27;20197;-91
2022/07/31 23:59:32;;;;;;;2.13;1.92;;;20.80;99.90;;;;;;10607827;27;20196;-90
